Chemroad Wing — 3EAB8 — position and weather

sailwx.info

Track history (hours):
 
Tides and Currents Weather Stations Pressure Air Temp Water Temp Dewpoint Dewpoint Depression Visibility Wind Speed Wind Dir Waves Ship Positions

Chemroad Wing

Last reported at 2017-Dec-15 00:58 UTC. Time now 2017-Dec-15 04:43 UTC.
Position N 25°37' E 122°16'.

Length 170 m; draft 11 m.

Type: Ship. MMSI: 357740000.

Date/timePositionNaut miles runAvg speedWind from/ knotsBaromVisibWave heightAir tempDewpointWater temp
2017-Dec-15 00:58N 25°37' E 122°16'814.2
2017-Dec-15 00:23N 25°28' E 122°17'13713.9
2017-Dec-14 14:34N 23°15' E 121°43'214.4
2017-Dec-14 14:27N 23°14' E 121°42'714.8
2017-Dec-14 14:00N 23°08' E 121°39'1313.6
2017-Dec-14 13:02N 22°56' E 121°32'113.9
2017-Dec-14 12:58N 22°56' E 121°31'714.0
2017-Dec-14 12:28N 22°50' E 121°27'814.1
2017-Dec-14 11:54N 22°42' E 121°23'713.4
2017-Dec-14 11:22N 22°36' E 121°19'613.2
2017-Dec-14 10:54N 22°30' E 121°18'1413.0
2017-Dec-14 09:51N 22°17' E 121°14'513.1
2017-Dec-14 09:30N 22°13' E 121°13'613.0
2017-Dec-14 09:00N 22°06' E 121°11'  
2017-Dec-08 03:45N 01°15' E 104°07'311.4
2017-Dec-08 03:30N 01°15' E 104°04'611.4
2017-Dec-08 03:00N 01°14' E 103°59'4 8.6
2017-Dec-08 02:30N 01°13' E 103°55'4 7.3
2017-Dec-08 02:00N 01°11' E 103°51'4 8.0
2017-Dec-08 01:30N 01°09' E 103°48'4 8.7
2017-Dec-08 01:00N 01°07' E 103°44'4 7.5
2017-Dec-08 00:31N 01°04' E 103°42'4 7.2
2017-Dec-08 00:00N 01°03' E 103°38'3 6.8
2017-Dec-07 23:30N 01°05' E 103°35'3 6.8
2017-Dec-07 23:01N 01°06' E 103°32'4 6.9
2017-Dec-07 22:30N 01°08' E 103°29'6 7.3
2017-Dec-07 21:41N 01°12' E 103°24'2 7.3
2017-Dec-07 21:23N 01°13' E 103°23'  
Track history (hours):
 
Tides and Currents Weather Stations Pressure Air Temp Water Temp Dewpoint Dewpoint Depression Visibility Wind Speed Wind Dir Waves Ship Positions

Chemroad Wing

Last reported at 2017-Dec-15 00:58 UTC. Time now 2017-Dec-15 04:43 UTC.
Position N 25°37' E 122°16'.

Length 170 m; draft 11 m.

Type: Ship. MMSI: 357740000.

Date/timePositionNaut miles runAvg speedWind from/ knotsBaromVisibWave heightAir tempDewpointWater temp
2017-Dec-15 00:58N 25°37' E 122°16'814.2
2017-Dec-15 00:23N 25°28' E 122°17'13713.9
2017-Dec-14 14:34N 23°15' E 121°43'214.4
2017-Dec-14 14:27N 23°14' E 121°42'714.8
2017-Dec-14 14:00N 23°08' E 121°39'1313.6
2017-Dec-14 13:02N 22°56' E 121°32'113.9
2017-Dec-14 12:58N 22°56' E 121°31'714.0
2017-Dec-14 12:28N 22°50' E 121°27'814.1
2017-Dec-14 11:54N 22°42' E 121°23'713.4
2017-Dec-14 11:22N 22°36' E 121°19'613.2
2017-Dec-14 10:54N 22°30' E 121°18'1413.0
2017-Dec-14 09:51N 22°17' E 121°14'513.1
2017-Dec-14 09:30N 22°13' E 121°13'613.0
2017-Dec-14 09:00N 22°06' E 121°11'  
2017-Dec-08 03:45N 01°15' E 104°07'311.4
2017-Dec-08 03:30N 01°15' E 104°04'611.4
2017-Dec-08 03:00N 01°14' E 103°59'4 8.6
2017-Dec-08 02:30N 01°13' E 103°55'4 7.3
2017-Dec-08 02:00N 01°11' E 103°51'4 8.0
2017-Dec-08 01:30N 01°09' E 103°48'4 8.7
2017-Dec-08 01:00N 01°07' E 103°44'4 7.5
2017-Dec-08 00:31N 01°04' E 103°42'4 7.2
2017-Dec-08 00:00N 01°03' E 103°38'3 6.8
2017-Dec-07 23:30N 01°05' E 103°35'3 6.8
2017-Dec-07 23:01N 01°06' E 103°32'4 6.9
2017-Dec-07 22:30N 01°08' E 103°29'6 7.3
2017-Dec-07 21:41N 01°12' E 103°24'2 7.3
2017-Dec-07 21:23N 01°13' E 103°23'  

Dump ship's entire track history